Time;durP1;ratioP1;P1;durP2;ratioP2;P2;SDS_P1;SDS_P2;PMS_P1;PMS_P2;Temp;Humidity;BMP_temperature;BMP_pressure;BME280_temperature;BME280_humidity;BME280_pressure;Samples;Min_cycle;Max_cycle;Signal;HPM_P1;HPM_P2
2021/08/17 00:02:14;;;;;;;5.22;1.92;;;;;;;;;;5093333;28;20042;-75
2021/08/17 00:04:41;;;;;;;5.75;1.83;;;;;;;;;;5093091;28;20048;-74
2021/08/17 00:07:07;;;;;;;5.65;1.73;;;;;;;;;;5093280;28;20115;-74
2021/08/17 00:09:33;;;;;;;8.63;2.05;;;;;;;;;;5093390;28;20028;-74
2021/08/17 00:11:59;;;;;;;6.90;1.85;;;;;;;;;;5093399;28;20032;-74
2021/08/17 00:14:25;;;;;;;4.78;1.88;;;;;;;;;;5093136;28;20029;-75
2021/08/17 00:16:51;;;;;;;5.55;2.08;;;;;;;;;;5093141;28;20067;-75
2021/08/17 00:19:17;;;;;;;6.15;2.25;;;;;;;;;;5093235;28;20032;-74
2021/08/17 00:21:43;;;;;;;4.32;1.70;;;;;;;;;;5093051;28;20047;-73
2021/08/17 00:24:10;;;;;;;6.65;2.30;;;;;;;;;;5093297;28;20115;-75
2021/08/17 00:26:36;;;;;;;6.50;2.03;;;;;;;;;;5093279;28;20081;-75
2021/08/17 00:29:02;;;;;;;7.82;1.77;;;;;;;;;;5093287;28;20032;-74
2021/08/17 00:31:28;;;;;;;6.18;1.85;;;;;;;;;;5092962;28;20153;-73
2021/08/17 00:33:54;;;;;;;6.68;2.40;;;;;;;;;;5093268;28;20039;-75
2021/08/17 00:36:20;;;;;;;5.18;2.00;;;;;;;;;;5093102;28;20040;-74
2021/08/17 00:38:46;;;;;;;3.10;1.75;;;;;;;;;;5093299;28;20435;-74
2021/08/17 00:41:13;;;;;;;4.03;2.45;;;;;;;;;;5093261;28;20067;-74
2021/08/17 00:43:40;;;;;;;5.78;2.22;;;;;;;;;;5093057;28;20024;-74
2021/08/17 00:46:09;;;;;;;5.50;2.30;;;;;;;;;;5074867;28;20426;-74
2021/08/17 00:48:38;;;;;;;4.43;2.28;;;;;;;;;;5093392;28;20032;-74
2021/08/17 00:51:07;;;;;;;4.28;2.00;;;;;;;;;;5093194;28;20044;-74
2021/08/17 00:53:34;;;;;;;8.85;2.17;;;;;;;;;;5096889;28;20598;-74
2021/08/17 00:56:00;;;;;;;6.03;2.13;;;;;;;;;;5096655;28;20043;-74
2021/08/17 00:58:27;;;;;;;6.60;2.17;;;;;;;;;;5096360;28;20119;-74
2021/08/17 01:00:53;;;;;;;4.68;1.95;;;;;;;;;;5096814;28;20055;-74
2021/08/17 01:03:19;;;;;;;5.40;2.00;;;;;;;;;;5096620;28;20052;-74
2021/08/17 01:05:45;;;;;;;7.18;2.00;;;;;;;;;;5096553;28;20029;-74
2021/08/17 01:08:11;;;;;;;6.00;2.05;;;;;;;;;;5096556;28;20036;-74
2021/08/17 01:10:38;;;;;;;5.25;2.10;;;;;;;;;;5096702;28;20075;-74
2021/08/17 01:13:04;;;;;;;6.97;1.88;;;;;;;;;;5096142;28;20078;-74
2021/08/17 01:15:30;;;;;;;5.97;1.75;;;;;;;;;;5096432;28;20032;-74
2021/08/17 01:17:56;;;;;;;7.35;2.10;;;;;;;;;;5096301;28;20074;-74
2021/08/17 01:20:22;;;;;;;4.40;2.00;;;;;;;;;;5096233;28;20428;-72
2021/08/17 01:22:49;;;;;;;6.45;2.08;;;;;;;;;;5096541;28;20032;-74
2021/08/17 01:25:15;;;;;;;7.47;2.05;;;;;;;;;;5096405;28;20048;-75
2021/08/17 01:27:42;;;;;;;4.90;2.00;;;;;;;;;;5096220;28;20039;-75
2021/08/17 01:30:10;;;;;;;4.10;2.17;;;;;;;;;;5096319;28;20377;-75
2021/08/17 01:32:36;;;;;;;6.50;2.80;;;;;;;;;;5096320;28;20040;-75
2021/08/17 01:35:03;;;;;;;11.77;2.55;;;;;;;;;;5095907;28;20040;-73
2021/08/17 01:37:29;;;;;;;7.65;2.33;;;;;;;;;;5096208;28;20388;-74
2021/08/17 01:39:59;;;;;;;6.70;2.40;;;;;;;;;;5095967;28;20373;-74
2021/08/17 01:42:26;;;;;;;6.07;2.33;;;;;;;;;;5095840;28;20047;-74
2021/08/17 01:44:52;;;;;;;6.43;2.45;;;;;;;;;;5095620;28;20035;-74
2021/08/17 01:47:18;;;;;;;9.75;2.50;;;;;;;;;;5096022;28;20063;-74
2021/08/17 01:49:44;;;;;;;8.75;2.17;;;;;;;;;;5095777;28;20032;-75
2021/08/17 01:52:10;;;;;;;6.28;2.60;;;;;;;;;;5095716;28;20111;-74
2021/08/17 01:54:36;;;;;;;5.82;2.20;;;;;;;;;;5095859;28;20028;-74
2021/08/17 01:57:02;;;;;;;6.13;2.40;;;;;;;;;;5095995;28;20050;-74
2021/08/17 01:59:30;;;;;;;7.20;3.25;;;;;;;;;;5095407;28;20032;-73
2021/08/17 02:01:57;;;;;;;6.68;2.38;;;;;;;;;;5095355;28;20040;-74
2021/08/17 02:04:25;;;;;;;7.30;2.85;;;;;;;;;;5095431;28;20048;-75
2021/08/17 02:06:51;;;;;;;9.57;2.60;;;;;;;;;;5095411;28;20411;-74
2021/08/17 02:09:17;;;;;;;7.90;2.60;;;;;;;;;;5095360;28;20032;-74
2021/08/17 02:11:43;;;;;;;3.50;2.55;;;;;;;;;;5095492;28;20036;-74
2021/08/17 02:14:10;;;;;;;7.68;2.35;;;;;;;;;;5095493;28;20036;-74
2021/08/17 02:16:36;;;;;;;5.25;2.25;;;;;;;;;;5095303;28;20084;-75
2021/08/17 02:19:02;;;;;;;6.70;2.53;;;;;;;;;;5095377;28;20042;-74
2021/08/17 02:21:28;;;;;;;5.82;2.60;;;;;;;;;;5095248;28;20408;-74
2021/08/17 02:23:54;;;;;;;5.55;2.33;;;;;;;;;;5095267;28;20392;-74
2021/08/17 02:26:20;;;;;;;6.22;2.30;;;;;;;;;;5095064;28;20040;-75
2021/08/17 02:28:46;;;;;;;7.05;2.72;;;;;;;;;;5094934;28;20392;-74
2021/08/17 02:31:12;;;;;;;10.10;2.65;;;;;;;;;;5095210;28;20387;-75
2021/08/17 02:33:38;;;;;;;10.40;2.33;;;;;;;;;;5094567;28;20032;-75
2021/08/17 02:36:04;;;;;;;9.68;2.55;;;;;;;;;;5076450;28;20032;-75
2021/08/17 02:38:31;;;;;;;5.10;2.15;;;;;;;;;;5095147;28;20032;-73
2021/08/17 02:40:57;;;;;;;9.70;2.65;;;;;;;;;;5094950;28;20096;-74
2021/08/17 02:43:24;;;;;;;15.50;3.28;;;;;;;;;;5094532;28;20036;-74
2021/08/17 02:45:51;;;;;;;5.55;2.40;;;;;;;;;;5094239;28;20032;-74
2021/08/17 02:48:18;;;;;;;7.20;2.70;;;;;;;;;;5094638;28;20062;-74
2021/08/17 02:50:44;;;;;;;3.85;2.22;;;;;;;;;;5094783;28;20152;-74
2021/08/17 02:53:10;;;;;;;9.38;2.20;;;;;;;;;;5094279;28;20476;-74
2021/08/17 02:55:36;;;;;;;6.43;2.15;;;;;;;;;;5094743;28;20024;-75
2021/08/17 02:58:05;;;;;;;7.85;2.30;;;;;;;;;;5094431;28;20105;-74
2021/08/17 03:00:32;;;;;;;12.13;2.50;;;;;;;;;;5094495;28;20043;-74
2021/08/17 03:02:58;;;;;;;13.02;2.80;;;;;;;;;;5094194;28;20130;-74
2021/08/17 03:05:24;;;;;;;4.90;2.30;;;;;;;;;;5094381;28;20032;-74
2021/08/17 03:07:51;;;;;;;9.98;2.20;;;;;;;;;;5094308;28;20484;-74
2021/08/17 03:10:17;;;;;;;5.38;2.35;;;;;;;;;;5094206;28;20052;-75
2021/08/17 03:12:43;;;;;;;5.53;2.40;;;;;;;;;;5094977;28;20036;-74
2021/08/17 03:15:09;;;;;;;8.40;2.47;;;;;;;;;;5093529;28;20062;-75
2021/08/17 03:17:37;;;;;;;5.43;2.13;;;;;;;;;;5094191;28;20044;-74
2021/08/17 03:20:04;;;;;;;7.30;2.60;;;;;;;;;;5094124;28;20099;-75
2021/08/17 03:22:30;;;;;;;5.93;2.50;;;;;;;;;;5094045;28;20127;-74
2021/08/17 03:24:57;;;;;;;7.13;2.28;;;;;;;;;;5094447;28;20043;-74
2021/08/17 03:27:23;;;;;;;6.55;2.50;;;;;;;;;;5094149;28;20067;-74
2021/08/17 03:29:49;;;;;;;3.38;2.33;;;;;;;;;;5093892;28;20039;-74
2021/08/17 03:32:15;;;;;;;6.95;2.25;;;;;;;;;;5094085;28;20036;-75
2021/08/17 03:34:41;;;;;;;4.97;1.92;;;;;;;;;;5094017;28;20043;-74
2021/08/17 03:37:07;;;;;;;6.55;2.20;;;;;;;;;;5093924;28;20048;-74
2021/08/17 03:39:33;;;;;;;7.80;2.00;;;;;;;;;;5093581;28;20102;-74
2021/08/17 03:41:59;;;;;;;4.13;1.92;;;;;;;;;;5093839;28;20028;-75
2021/08/17 03:44:25;;;;;;;5.07;2.20;;;;;;;;;;5093981;28;20063;-75
2021/08/17 03:46:51;;;;;;;3.33;1.80;;;;;;;;;;5093977;28;20032;-75
2021/08/17 03:49:17;;;;;;;7.82;1.90;;;;;;;;;;5093430;28;20036;-75
2021/08/17 03:51:43;;;;;;;5.45;2.20;;;;;;;;;;5093559;28;20034;-74
2021/08/17 03:54:09;;;;;;;6.03;1.90;;;;;;;;;;5093619;28;20035;-74
2021/08/17 03:56:35;;;;;;;6.68;2.00;;;;;;;;;;5093582;28;20036;-74
2021/08/17 03:59:01;;;;;;;3.88;2.15;;;;;;;;;;5093702;28;20376;-75
2021/08/17 04:01:27;;;;;;;7.03;2.15;;;;;;;;;;5093607;28;20431;-75
2021/08/17 04:03:53;;;;;;;9.60;2.13;;;;;;;;;;5093238;28;20444;-74
2021/08/17 04:06:19;;;;;;;3.75;2.13;;;;;;;;;;5093474;28;20067;-74
2021/08/17 04:08:47;;;;;;;7.45;2.10;;;;;;;;;;5093786;28;20047;-75
2021/08/17 04:11:13;;;;;;;6.70;1.92;;;;;;;;;;5093367;28;20031;-74
2021/08/17 04:13:40;;;;;;;7.97;2.10;;;;;;;;;;5093207;28;20040;-74
2021/08/17 04:16:06;;;;;;;10.13;2.55;;;;;;;;;;5093399;28;20024;-74
2021/08/17 04:18:32;;;;;;;8.45;2.47;;;;;;;;;;5093575;28;20123;-74
2021/08/17 04:20:58;;;;;;;5.53;2.63;;;;;;;;;;5093071;28;20498;-74
2021/08/17 04:23:24;;;;;;;6.90;2.67;;;;;;;;;;5093361;28;20036;-74
2021/08/17 04:25:51;;;;;;;6.47;2.78;;;;;;;;;;5094872;28;20239;-74
2021/08/17 04:28:17;;;;;;;5.65;2.55;;;;;;;;;;5097635;28;20036;-74
2021/08/17 04:30:43;;;;;;;6.15;2.33;;;;;;;;;;5097155;28;20089;-74
2021/08/17 04:33:09;;;;;;;8.23;2.70;;;;;;;;;;5097361;28;20052;-74
2021/08/17 04:35:35;;;;;;;10.75;2.88;;;;;;;;;;5097415;28;20044;-75
2021/08/17 04:38:01;;;;;;;8.77;3.10;;;;;;;;;;5097288;28;20052;-73
2021/08/17 04:40:27;;;;;;;5.03;2.75;;;;;;;;;;5097301;28;20028;-74
2021/08/17 04:42:53;;;;;;;7.45;2.70;;;;;;;;;;5097248;28;20039;-73
2021/08/17 04:45:20;;;;;;;4.80;2.70;;;;;;;;;;5097050;28;20059;-74
2021/08/17 04:47:51;;;;;;;8.50;2.78;;;;;;;;;;5078806;28;20385;-74
2021/08/17 04:50:17;;;;;;;7.10;2.50;;;;;;;;;;5097238;28;20032;-75
2021/08/17 04:52:43;;;;;;;6.95;2.40;;;;;;;;;;5097086;28;20082;-74
2021/08/17 04:55:10;;;;;;;9.63;2.78;;;;;;;;;;5097080;28;20039;-74
2021/08/17 04:57:48;;;;;;;10.38;2.50;;;;;;;;;;5096838;28;20047;-74
2021/08/17 05:00:14;;;;;;;5.68;2.20;;;;;;;;;;5096800;28;20058;-74
2021/08/17 05:02:40;;;;;;;7.35;2.50;;;;;;;;;;5096709;28;20201;-75
2021/08/17 05:05:07;;;;;;;6.25;2.38;;;;;;;;;;5096771;28;20036;-74
2021/08/17 05:07:36;;;;;;;8.52;3.00;;;;;;;;;;5096509;28;20081;-73
2021/08/17 05:10:02;;;;;;;6.05;2.78;;;;;;;;;;5096826;28;20032;-74
2021/08/17 05:12:28;;;;;;;7.72;2.40;;;;;;;;;;5096856;28;20369;-74
2021/08/17 05:14:54;;;;;;;5.07;2.30;;;;;;;;;;5096556;28;20389;-73
2021/08/17 05:17:20;;;;;;;6.28;2.35;;;;;;;;;;5096437;28;20539;-74
2021/08/17 05:19:46;;;;;;;10.40;2.50;;;;;;;;;;5096329;28;20472;-74
2021/08/17 05:22:12;;;;;;;8.48;2.67;;;;;;;;;;5096206;28;20032;-75
2021/08/17 05:24:38;;;;;;;7.95;3.00;;;;;;;;;;5096332;28;20032;-74
2021/08/17 05:27:04;;;;;;;4.75;2.17;;;;;;;;;;5096423;28;20036;-74
2021/08/17 05:29:30;;;;;;;5.13;2.35;;;;;;;;;;5096452;28;20094;-74
2021/08/17 05:31:57;;;;;;;9.68;2.38;;;;;;;;;;5096018;28;20480;-74
2021/08/17 05:34:23;;;;;;;4.97;2.03;;;;;;;;;;5096323;28;20029;-74
2021/08/17 05:36:49;;;;;;;4.40;1.60;;;;;;;;;;5096017;28;20072;-74
2021/08/17 05:39:15;;;;;;;4.63;1.80;;;;;;;;;;5096081;28;20028;-75
2021/08/17 05:41:41;;;;;;;3.97;1.80;;;;;;;;;;5096048;28;20063;-73
2021/08/17 05:44:07;;;;;;;5.03;1.52;;;;;;;;;;5095775;28;20052;-73
2021/08/17 05:46:33;;;;;;;6.15;1.88;;;;;;;;;;5095829;28;20036;-76
2021/08/17 05:48:59;;;;;;;6.50;1.90;;;;;;;;;;5096003;28;20034;-75
2021/08/17 05:51:26;;;;;;;5.80;1.70;;;;;;;;;;5096121;28;20071;-75
2021/08/17 05:53:52;;;;;;;7.15;2.17;;;;;;;;;;5095618;28;20082;-76
2021/08/17 05:56:18;;;;;;;4.93;2.22;;;;;;;;;;5096234;28;20473;-76
2021/08/17 05:58:44;;;;;;;3.38;1.70;;;;;;;;;;5095941;28;20043;-76
2021/08/17 06:01:10;;;;;;;4.28;1.73;;;;;;;;;;5095825;28;20040;-76
2021/08/17 06:03:36;;;;;;;2.75;1.50;;;;;;;;;;5095417;28;20055;-76
2021/08/17 06:06:02;;;;;;;4.05;1.50;;;;;;;;;;5095603;28;20036;-75
2021/08/17 06:08:28;;;;;;;6.40;1.70;;;;;;;;;;5095630;28;20135;-75
2021/08/17 06:10:54;;;;;;;3.20;1.60;;;;;;;;;;5095552;28;20040;-75
2021/08/17 06:13:20;;;;;;;5.25;1.70;;;;;;;;;;5095592;28;20042;-74
2021/08/17 06:15:47;;;;;;;4.40;1.65;;;;;;;;;;5095558;28;20054;-74
2021/08/17 06:18:13;;;;;;;5.10;1.67;;;;;;;;;;5095016;28;20044;-73
2021/08/17 06:20:39;;;;;;;7.70;1.55;;;;;;;;;;5095160;28;20549;-74
2021/08/17 06:23:05;;;;;;;8.38;1.60;;;;;;;;;;5095089;28;20040;-75
2021/08/17 06:25:31;;;;;;;3.42;1.52;;;;;;;;;;5094856;28;20160;-75
2021/08/17 06:27:57;;;;;;;3.38;1.48;;;;;;;;;;5094837;28;20039;-74
2021/08/17 06:30:24;;;;;;;2.70;1.42;;;;;;;;;;5094661;28;20032;-74
2021/08/17 06:32:50;;;;;;;4.50;1.67;;;;;;;;;;5094718;28;20064;-75
2021/08/17 06:35:16;;;;;;;5.88;2.13;;;;;;;;;;5094861;28;20105;-74
2021/08/17 06:37:42;;;;;;;4.28;1.50;;;;;;;;;;5094549;28;20115;-75
2021/08/17 06:40:08;;;;;;;3.42;1.35;;;;;;;;;;5094149;28;20125;-74
2021/08/17 06:42:35;;;;;;;3.78;1.42;;;;;;;;;;5094177;28;20029;-74
2021/08/17 06:45:02;;;;;;;2.55;1.77;;;;;;;;;;5094693;28;20036;-72
2021/08/17 06:47:28;;;;;;;4.15;1.70;;;;;;;;;;5094285;28;20420;-73
2021/08/17 06:49:54;;;;;;;3.83;1.95;;;;;;;;;;5093257;28;20040;-73
2021/08/17 06:52:20;;;;;;;3.22;1.30;;;;;;;;;;5094287;28;20036;-75
2021/08/17 06:54:46;;;;;;;6.82;1.42;;;;;;;;;;5094471;28;20054;-75
2021/08/17 06:57:12;;;;;;;3.65;1.35;;;;;;;;;;5094371;28;20067;-74
2021/08/17 06:59:38;;;;;;;3.13;1.80;;;;;;;;;;5094457;28;20495;-74
2021/08/17 07:02:04;;;;;;;4.40;1.42;;;;;;;;;;5094453;28;20055;-75
2021/08/17 07:04:30;;;;;;;2.58;1.50;;;;;;;;;;5093960;28;20052;-74
2021/08/17 07:06:56;;;;;;;4.25;1.77;;;;;;;;;;5094050;28;20040;-74
2021/08/17 07:09:22;;;;;;;2.72;1.38;;;;;;;;;;5094239;28;20032;-74
2021/08/17 07:11:48;;;;;;;2.05;1.20;;;;;;;;;;5094303;28;20035;-74
2021/08/17 07:14:14;;;;;;;2.17;1.30;;;;;;;;;;5094398;28;20039;-75
2021/08/17 07:16:41;;;;;;;2.05;1.30;;;;;;;;;;5094393;28;20468;-72
2021/08/17 07:19:07;;;;;;;3.47;1.27;;;;;;;;;;5094336;28;20424;-75
2021/08/17 07:21:33;;;;;;;1.80;1.20;;;;;;;;;;5094122;28;20086;-75
2021/08/17 07:23:59;;;;;;;4.57;1.80;;;;;;;;;;5094259;28;20028;-74
2021/08/17 07:26:25;;;;;;;2.45;1.30;;;;;;;;;;5094181;28;20032;-73
2021/08/17 07:28:51;;;;;;;7.25;1.50;;;;;;;;;;5094097;28;20040;-76
2021/08/17 07:31:17;;;;;;;5.47;1.70;;;;;;;;;;5094001;28;20036;-75
2021/08/17 07:33:43;;;;;;;1.70;1.10;;;;;;;;;;5094068;28;20032;-67
2021/08/17 07:36:11;;;;;;;6.00;1.40;;;;;;;;;;5093903;28;20476;-71
2021/08/17 07:38:37;;;;;;;1.92;1.30;;;;;;;;;;5094031;28;20048;-76
2021/08/17 07:41:03;;;;;;;3.65;1.30;;;;;;;;;;5093925;28;20086;-74
2021/08/17 07:43:29;;;;;;;9.18;1.40;;;;;;;;;;5096734;28;20088;-75
2021/08/17 07:45:55;;;;;;;1.98;1.30;;;;;;;;;;5094121;28;20028;-76
2021/08/17 07:48:21;;;;;;;3.15;1.52;;;;;;;;;;5094283;28;20093;-73
2021/08/17 07:50:47;;;;;;;2.63;1.10;;;;;;;;;;5093523;28;20036;-75
2021/08/17 07:53:13;;;;;;;4.25;1.02;;;;;;;;;;5095521;28;20115;-75
2021/08/17 07:55:39;;;;;;;7.00;1.30;;;;;;;;;;5094196;28;20036;-74
2021/08/17 07:58:05;;;;;;;1.88;1.20;;;;;;;;;;5093589;28;20511;-74
2021/08/17 08:00:32;;;;;;;2.13;1.27;;;;;;;;;;5093412;28;20115;-73
2021/08/17 08:02:58;;;;;;;1.17;0.98;;;;;;;;;;5093294;28;20051;-74
2021/08/17 08:05:24;;;;;;;1.67;0.90;;;;;;;;;;5093624;28;20028;-74
2021/08/17 08:07:50;;;;;;;1.70;1.13;;;;;;;;;;5093345;28;20449;-74
2021/08/17 08:10:16;;;;;;;3.42;0.95;;;;;;;;;;5093441;28;20059;-74
2021/08/17 08:12:42;;;;;;;4.65;1.40;;;;;;;;;;5093519;28;20043;-73
2021/08/17 08:15:08;;;;;;;2.45;0.95;;;;;;;;;;5093393;28;20472;-75
2021/08/17 08:17:34;;;;;;;3.83;0.98;;;;;;;;;;5075365;28;20044;-73
2021/08/17 08:20:00;;;;;;;1.77;1.00;;;;;;;;;;5093412;28;20032;-75
2021/08/17 08:22:26;;;;;;;2.33;1.25;;;;;;;;;;5093493;28;20040;-76
2021/08/17 08:24:52;;;;;;;2.10;0.93;;;;;;;;;;5093338;28;20032;-74
2021/08/17 08:27:18;;;;;;;3.78;0.98;;;;;;;;;;5093410;28;20040;-74
2021/08/17 08:29:44;;;;;;;2.72;0.95;;;;;;;;;;5093463;28;20349;-74
2021/08/17 08:32:11;;;;;;;1.88;0.90;;;;;;;;;;5093304;28;20040;-74
2021/08/17 08:34:37;;;;;;;4.10;0.82;;;;;;;;;;5092988;28;20141;-73
2021/08/17 08:37:03;;;;;;;1.67;1.10;;;;;;;;;;5093162;28;20044;-73
2021/08/17 08:39:30;;;;;;;3.47;1.00;;;;;;;;;;5093077;28;20485;-72
2021/08/17 08:41:56;;;;;;;1.42;0.80;;;;;;;;;;5093257;28;20123;-71
2021/08/17 08:44:22;;;;;;;2.75;0.95;;;;;;;;;;5093233;28;20032;-73
2021/08/17 08:46:48;;;;;;;7.00;1.02;;;;;;;;;;5093212;28;20036;-74
2021/08/17 08:49:14;;;;;;;2.10;1.00;;;;;;;;;;5093246;28;20089;-73
2021/08/17 08:51:40;;;;;;;4.97;1.30;;;;;;;;;;5092998;28;20047;-73
2021/08/17 08:54:07;;;;;;;3.72;1.33;;;;;;;;;;5093012;28;20115;-75
2021/08/17 08:56:33;;;;;;;2.90;1.17;;;;;;;;;;5092822;28;20066;-73
2021/08/17 08:59:00;;;;;;;3.40;1.10;;;;;;;;;;5093047;28;20040;-72
2021/08/17 09:01:26;;;;;;;2.55;1.10;;;;;;;;;;5092873;28;20492;-73
2021/08/17 09:03:53;;;;;;;5.80;1.60;;;;;;;;;;5092685;28;20056;-73
2021/08/17 09:06:29;;;;;;;2.97;1.20;;;;;;;;;;5093312;28;20051;-72
2021/08/17 09:09:17;;;;;;;3.75;1.20;;;;;;;;;;5092961;28;20040;-73
2021/08/17 09:11:47;;;;;;;3.88;1.20;;;;;;;;;;5092820;28;20377;-70
2021/08/17 09:14:16;;;;;;;3.28;1.20;;;;;;;;;;5096453;28;20043;-72
2021/08/17 09:16:42;;;;;;;3.50;1.13;;;;;;;;;;5096460;28;20051;-70
2021/08/17 09:19:27;;;;;;;2.08;0.95;;;;;;;;;;5096836;28;20066;-72
2021/08/17 09:21:54;;;;;;;2.35;1.20;;;;;;;;;;5096366;28;20020;-71
2021/08/17 09:24:24;;;;;;;4.25;1.30;;;;;;;;;;5096435;28;20455;-74
2021/08/17 09:26:53;;;;;;;2.88;1.30;;;;;;;;;;5096431;28;20020;-73
2021/08/17 09:29:38;;;;;;;5.05;1.10;;;;;;;;;;5096382;28;20066;-73
2021/08/17 09:32:34;;;;;;;2.78;1.05;;;;;;;;;;5096419;28;20032;-72
2021/08/17 09:35:01;;;;;;;2.25;1.20;;;;;;;;;;5083196;28;20086;-73
2021/08/17 09:37:28;;;;;;;2.92;1.17;;;;;;;;;;5096111;28;20051;-73
2021/08/17 09:39:55;;;;;;;6.15;1.33;;;;;;;;;;5096122;28;20039;-73
2021/08/17 09:42:26;;;;;;;3.28;1.10;;;;;;;;;;5096110;28;20032;-72
2021/08/17 09:45:06;;;;;;;2.38;1.23;;;;;;;;;;5095965;28;20064;-74
2021/08/17 09:47:33;;;;;;;3.08;1.30;;;;;;;;;;5095718;28;20040;-72
2021/08/17 09:50:18;;;;;;;2.38;1.15;;;;;;;;;;5096107;28;20055;-71
2021/08/17 09:52:44;;;;;;;3.92;1.17;;;;;;;;;;5096019;28;20043;-72
2021/08/17 09:55:17;;;;;;;1.83;0.93;;;;;;;;;;5096175;28;20036;-70
2021/08/17 09:57:44;;;;;;;3.70;1.10;;;;;;;;;;5095572;28;20404;-69
2021/08/17 10:00:14;;;;;;;3.05;1.20;;;;;;;;;;5095603;28;20475;-69
2021/08/17 10:02:47;;;;;;;3.42;1.50;;;;;;;;;;5095629;28;20101;-74
2021/08/17 10:05:14;;;;;;;2.58;1.20;;;;;;;;;;5095968;28;20115;-73
2021/08/17 10:07:41;;;;;;;6.47;1.20;;;;;;;;;;5095702;28;20071;-73
2021/08/17 10:10:08;;;;;;;2.55;1.40;;;;;;;;;;5095564;28;20101;-73
2021/08/17 10:12:36;;;;;;;3.05;1.08;;;;;;;;;;5095532;28;20086;-73
2021/08/17 10:15:02;;;;;;;3.00;1.00;;;;;;;;;;5095465;28;20028;-73
2021/08/17 10:17:28;;;;;;;2.67;1.50;;;;;;;;;;5095388;28;20089;-73
2021/08/17 10:19:54;;;;;;;2.20;1.20;;;;;;;;;;5095541;28;20376;-73
2021/08/17 10:22:20;;;;;;;3.67;1.02;;;;;;;;;;5095082;28;20032;-73
2021/08/17 10:24:50;;;;;;;2.53;1.15;;;;;;;;;;5095238;28;20055;-73
2021/08/17 10:27:26;;;;;;;2.60;0.90;;;;;;;;;;5095044;28;20036;-74
2021/08/17 10:29:58;;;;;;;3.78;1.20;;;;;;;;;;5095131;28;20040;-73
2021/08/17 10:32:24;;;;;;;;;;;;;;;;;;5095368;28;20056;-74
2021/08/17 10:34:50;;;;;;;5.18;1.00;;;;;;;;;;5094977;28;19912;-73
2021/08/17 10:37:20;;;;;;;3.60;1.13;;;;;;;;;;5094836;28;20040;-74
2021/08/17 10:39:46;;;;;;;1.88;0.93;;;;;;;;;;5095192;28;20032;-72
2021/08/17 10:42:20;;;;;;;1.88;0.80;;;;;;;;;;5095507;28;20066;-72
2021/08/17 10:44:46;;;;;;;3.72;1.08;;;;;;;;;;5094934;28;20050;-73
2021/08/17 10:47:26;;;;;;;3.30;1.10;;;;;;;;;;5094848;28;20500;-72
2021/08/17 10:49:52;;;;;;;3.50;1.10;;;;;;;;;;5094480;28;20476;-72
2021/08/17 10:52:29;;;;;;;3.60;1.05;;;;;;;;;;5094160;28;20040;-73
2021/08/17 10:55:13;;;;;;;2.22;1.45;;;;;;;;;;5094393;28;20107;-73
2021/08/17 10:57:56;;;;;;;5.90;1.10;;;;;;;;;;5094530;28;20051;-72
2021/08/17 11:00:54;;;;;;;2.47;1.08;;;;;;;;;;5094076;28;20028;-73
2021/08/17 11:03:40;;;;;;;1.45;0.75;;;;;;;;;;5060454;28;20052;-74
2021/08/17 11:06:07;;;;;;;2.33;1.20;;;;;;;;;;5094447;28;20422;-74
2021/08/17 11:08:32;;;;;;;5.75;1.00;;;;;;;;;;5094621;28;20036;-74
2021/08/17 11:55:10;;;;;;;2.08;0.90;;;;;;;;;;5098285;28;20097;-70
2021/08/17 11:57:37;;;;;;;0.60;0.60;;;;;;;;;;5113900;28;20113;-69
2021/08/17 12:00:06;;;;;;;7.13;0.70;;;;;;;;;;5113942;28;20442;-68
2021/08/17 12:02:32;;;;;;;2.67;0.95;;;;;;;;;;5114040;28;20043;-70
2021/08/17 12:05:00;;;;;;;3.42;0.80;;;;;;;;;;5113939;28;20099;-71
2021/08/17 12:07:27;;;;;;;1.42;0.80;;;;;;;;;;5113331;28;20084;-67
2021/08/17 12:09:53;;;;;;;3.25;1.02;;;;;;;;;;5113603;28;20035;-69
2021/08/17 12:12:20;;;;;;;1.70;0.57;;;;;;;;;;5113900;28;20429;-69
2021/08/17 12:15:07;;;;;;;2.70;0.77;;;;;;;;;;5113414;28;20035;-69
2021/08/17 12:17:33;;;;;;;1.95;0.82;;;;;;;;;;5113675;28;20044;-68
2021/08/17 12:20:04;;;;;;;1.50;0.77;;;;;;;;;;5113719;28;20425;-68
2021/08/17 12:22:32;;;;;;;3.53;0.73;;;;;;;;;;5113595;28;20059;-69
2021/08/17 12:24:58;;;;;;;3.30;0.77;;;;;;;;;;5113690;28;20089;-66
2021/08/17 12:27:28;;;;;;;1.00;0.70;;;;;;;;;;5113469;28;20387;-69
2021/08/17 12:29:55;;;;;;;5.13;0.95;;;;;;;;;;5113187;28;20059;-69
2021/08/17 12:32:23;;;;;;;2.55;0.80;;;;;;;;;;5113769;28;20043;-69
2021/08/17 12:34:50;;;;;;;4.38;0.90;;;;;;;;;;5113462;28;20480;-68
2021/08/17 12:37:26;;;;;;;1.20;0.80;;;;;;;;;;5113250;28;20044;-69
2021/08/17 12:39:53;;;;;;;2.47;1.00;;;;;;;;;;5113597;28;20468;-68
2021/08/17 12:42:19;;;;;;;3.00;0.80;;;;;;;;;;5113339;28;20031;-68
2021/08/17 12:44:45;;;;;;;1.40;0.70;;;;;;;;;;5095129;28;20089;-69
2021/08/17 12:47:15;;;;;;;1.35;0.70;;;;;;;;;;5113809;28;20043;-69
2021/08/17 12:49:44;;;;;;;2.05;0.70;;;;;;;;;;5117598;28;20047;-70
2021/08/17 12:52:24;;;;;;;4.85;0.75;;;;;;;;;;5117258;28;20038;-69
2021/08/17 12:54:51;;;;;;;1.77;0.90;;;;;;;;;;5116989;28;20408;-68
2021/08/17 12:57:21;;;;;;;1.58;0.80;;;;;;;;;;5117197;28;20043;-69
2021/08/17 12:59:47;;;;;;;2.17;0.77;;;;;;;;;;5117335;28;20057;-69
2021/08/17 13:02:13;;;;;;;1.95;0.90;;;;;;;;;;5117197;28;20115;-70
2021/08/17 13:04:39;;;;;;;1.40;0.90;;;;;;;;;;5117455;28;20376;-69
2021/08/17 13:07:05;;;;;;;1.98;0.93;;;;;;;;;;5117132;28;20039;-68
2021/08/17 13:09:32;;;;;;;2.47;0.70;;;;;;;;;;5117174;28;20036;-72
2021/08/17 13:11:58;;;;;;;1.33;0.70;;;;;;;;;;5117087;28;20119;-69
2021/08/17 13:14:24;;;;;;;1.02;0.70;;;;;;;;;;5117072;28;20456;-71
2021/08/17 13:16:50;;;;;;;1.27;0.70;;;;;;;;;;5116941;28;20574;-71
2021/08/17 13:19:16;;;;;;;1.13;0.73;;;;;;;;;;5116826;28;20028;-68
2021/08/17 13:21:42;;;;;;;5.45;0.98;;;;;;;;;;5116961;28;20081;-69
2021/08/17 13:24:08;;;;;;;3.38;0.82;;;;;;;;;;5116808;28;20349;-70
2021/08/17 13:26:34;;;;;;;1.75;0.90;;;;;;;;;;5116690;28;20468;-71
2021/08/17 13:29:00;;;;;;;2.20;0.75;;;;;;;;;;5116677;28;20046;-68
2021/08/17 13:31:26;;;;;;;1.13;0.93;;;;;;;;;;5116729;28;20032;-69
2021/08/17 13:33:52;;;;;;;2.20;0.90;;;;;;;;;;5116500;28;20035;-72
2021/08/17 13:36:18;;;;;;;1.55;0.77;;;;;;;;;;5116674;28;20028;-68
2021/08/17 13:38:45;;;;;;;1.40;0.93;;;;;;;;;;5116695;28;20140;-69
2021/08/17 13:41:11;;;;;;;4.20;1.08;;;;;;;;;;5116701;28;20058;-69
2021/08/17 13:43:37;;;;;;;3.30;1.00;;;;;;;;;;5116627;28;20484;-69
2021/08/17 13:46:03;;;;;;;1.50;0.80;;;;;;;;;;5116350;28;20084;-69
2021/08/17 13:48:30;;;;;;;3.22;0.88;;;;;;;;;;5116576;28;20035;-68
2021/08/17 13:50:56;;;;;;;1.80;1.00;;;;;;;;;;5116460;28;20099;-67
2021/08/17 13:53:22;;;;;;;2.72;0.88;;;;;;;;;;5116271;28;20032;-66
2021/08/17 13:55:48;;;;;;;1.95;0.85;;;;;;;;;;5116160;28;20403;-68
2021/08/17 13:58:15;;;;;;;1.73;0.85;;;;;;;;;;5115489;28;20043;-68
2021/08/17 14:00:41;;;;;;;1.10;0.80;;;;;;;;;;5116183;28;20047;-68
2021/08/17 14:03:07;;;;;;;4.72;1.05;;;;;;;;;;5116062;28;20039;-67
2021/08/17 14:05:34;;;;;;;1.60;0.95;;;;;;;;;;5115857;28;20032;-67
2021/08/17 14:08:00;;;;;;;3.47;1.00;;;;;;;;;;5115882;28;20408;-67
2021/08/17 14:10:26;;;;;;;1.55;1.08;;;;;;;;;;5115500;28;20089;-67
2021/08/17 14:12:52;;;;;;;2.00;1.00;;;;;;;;;;5115629;28;20089;-66
2021/08/17 14:15:18;;;;;;;3.95;0.80;;;;;;;;;;5115570;28;20411;-68
2021/08/17 14:17:44;;;;;;;3.15;1.15;;;;;;;;;;5115588;28;20085;-67
2021/08/17 14:20:10;;;;;;;1.10;0.80;;;;;;;;;;5115430;28;20491;-68
2021/08/17 14:22:37;;;;;;;7.47;1.15;;;;;;;;;;5115827;28;20174;-68
2021/08/17 14:25:03;;;;;;;6.10;0.88;;;;;;;;;;5115487;28;20593;-67
2021/08/17 14:27:29;;;;;;;3.45;1.00;;;;;;;;;;5115412;28;20157;-67
2021/08/17 14:29:55;;;;;;;5.45;0.90;;;;;;;;;;5115584;28;20119;-67
2021/08/17 14:32:21;;;;;;;1.55;1.00;;;;;;;;;;5115510;28;20039;-67
2021/08/17 14:34:47;;;;;;;4.85;0.90;;;;;;;;;;5115531;28;20055;-66
2021/08/17 14:37:13;;;;;;;2.22;0.90;;;;;;;;;;5115236;28;20117;-67
2021/08/17 14:39:40;;;;;;;3.13;0.95;;;;;;;;;;5115098;28;20034;-67
2021/08/17 14:42:06;;;;;;;2.47;0.90;;;;;;;;;;5115348;28;20053;-67
2021/08/17 14:44:33;;;;;;;1.55;1.05;;;;;;;;;;5115169;28;20023;-67
2021/08/17 14:47:03;;;;;;;1.35;0.98;;;;;;;;;;5115324;28;20043;-67
2021/08/17 14:49:29;;;;;;;2.45;0.85;;;;;;;;;;5115124;28;20494;-68
2021/08/17 14:51:55;;;;;;;1.92;0.80;;;;;;;;;;5115300;28;20114;-67
2021/08/17 14:54:21;;;;;;;1.73;0.95;;;;;;;;;;5114770;28;20036;-67
2021/08/17 14:56:47;;;;;;;1.08;0.80;;;;;;;;;;5115127;28;20039;-67
2021/08/17 14:59:13;;;;;;;1.92;1.02;;;;;;;;;;5114863;28;20121;-67
2021/08/17 15:01:40;;;;;;;2.05;1.00;;;;;;;;;;5114891;28;20043;-67
2021/08/17 15:04:06;;;;;;;1.52;0.90;;;;;;;;;;5114962;28;20035;-66
2021/08/17 15:06:32;;;;;;;3.95;0.90;;;;;;;;;;5114856;28;20342;-67
2021/08/17 15:08:58;;;;;;;2.03;1.27;;;;;;;;;;5114760;28;20403;-68
2021/08/17 15:11:24;;;;;;;1.55;0.80;;;;;;;;;;5113725;28;20027;-67
2021/08/17 15:13:50;;;;;;;2.20;0.95;;;;;;;;;;5114527;28;20530;-68
2021/08/17 15:16:17;;;;;;;1.50;1.02;;;;;;;;;;5114788;28;20111;-67
2021/08/17 15:18:46;;;;;;;1.95;0.90;;;;;;;;;;5114532;28;20040;-67
2021/08/17 15:21:12;;;;;;;1.88;0.85;;;;;;;;;;5114353;28;20027;-70
2021/08/17 15:23:38;;;;;;;1.70;1.00;;;;;;;;;;5114438;28;20043;-68
2021/08/17 15:26:05;;;;;;;1.85;0.93;;;;;;;;;;5114267;28;20035;-67
2021/08/17 15:28:31;;;;;;;2.00;1.02;;;;;;;;;;5114505;28;20032;-67